createdAt,value
2022-12-01T00:00:58.426Z,102927.19
2022-12-01T00:03:31.453Z,102927.88
2022-12-01T00:06:03.486Z,102923.53
2022-12-01T00:08:35.056Z,102928.78
2022-12-01T00:11:12.607Z,102924.56
2022-12-01T00:13:43.026Z,102928.06
2022-12-01T00:16:17.657Z,102930.69
2022-12-01T00:18:51.317Z,102923.53
2022-12-01T00:21:23.972Z,102932.31
2022-12-01T00:23:57.761Z,102916.63
2022-12-01T00:26:32.085Z,102927.34
2022-12-01T00:29:02.825Z,102926.44
2022-12-01T00:31:34.010Z,102928.25
2022-12-01T00:34:09.695Z,102923.91
2022-12-01T00:36:42.435Z,102923.91
2022-12-01T00:39:12.826Z,102915.19
2022-12-01T00:41:45.214Z,102923.03
2022-12-01T00:44:16.058Z,102909.03
2022-12-01T00:46:46.845Z,102918.81
2022-12-01T00:49:17.508Z,102904.72
2022-12-01T00:51:48.727Z,102905.75
2022-12-01T00:54:19.516Z,102910.97
2022-12-01T00:56:51.883Z,102908.44
2022-12-01T00:59:22.205Z,102904.13
2022-12-01T01:01:54.459Z,102907.63
2022-12-01T01:04:25.098Z,102906.81
2022-12-01T01:06:56.186Z,102905.91
2022-12-01T01:09:26.734Z,102910.53
2022-12-01T01:11:59.325Z,102908.91
2022-12-01T01:14:30.944Z,102907.09
2022-12-01T01:17:01.877Z,102907.03
2022-12-01T01:19:33.086Z,102906.81
2022-12-01T01:22:03.681Z,102904.03
2022-12-01T01:24:35.556Z,102905.63
2022-12-01T01:27:08.055Z,102910.84
2022-12-01T01:29:39.215Z,102916.06
2022-12-01T01:32:09.995Z,102907.63
2022-12-01T01:34:40.328Z,102916.06
2022-12-01T01:37:11.503Z,102912.69
2022-12-01T01:39:42.139Z,102912.78
2022-12-01T01:42:15.987Z,102911.75
2022-12-01T01:44:52.966Z,102907.44
2022-12-01T01:47:27.166Z,102906.72
2022-12-01T01:50:01.107Z,102906.91
2022-12-01T01:52:32.016Z,102909.50
2022-12-01T01:55:02.716Z,102901.78
2022-12-01T01:57:35.966Z,102902.69
2022-12-01T02:00:09.625Z,102900.16
2022-12-01T02:02:46.131Z,102908.91
2022-12-01T02:05:21.306Z,102909.09
2022-12-01T02:07:54.096Z,102913.41
2022-12-01T02:10:30.596Z,102910.78
2022-12-01T02:13:17.871Z,102907.19
2022-12-01T02:15:58.359Z,102909.09
2022-12-01T02:18:39.756Z,102901.34
2022-12-01T02:21:35.695Z,102911.72
2022-12-01T02:24:38.773Z,102900.53
2022-12-01T02:27:21.676Z,102909.19
2022-12-01T02:30:11.184Z,102905.75
2022-12-01T02:33:00.544Z,102899.91
2022-12-01T02:35:39.484Z,102906.13
2022-12-01T02:38:15.906Z,102905.31
2022-12-01T02:40:54.977Z,102905.53
2022-12-01T02:43:33.329Z,102904.72
2022-12-01T02:46:11.170Z,102898.66
2022-12-01T02:48:46.055Z,102895.31
2022-12-01T02:51:22.346Z,102897.03
2022-12-01T02:53:53.418Z,102904.19
2022-12-01T02:56:25.245Z,102892.91
2022-12-01T02:58:56.118Z,102895.59
2022-12-01T03:01:52.897Z,102900.09
2022-12-01T03:04:39.188Z,102900.09
2022-12-01T03:07:25.152Z,102888.81
2022-12-01T03:10:19.005Z,102889.75
2022-12-01T03:13:01.405Z,102888.03
2022-12-01T03:15:38.189Z,102890.72
2022-12-01T03:18:20.633Z,102893.34
2022-12-01T03:21:02.167Z,102896.13
2022-12-01T03:23:38.342Z,102894.41
2022-12-01T03:26:12.796Z,102889.19
2022-12-01T03:28:49.927Z,102896.34
2022-12-01T03:31:26.470Z,102894.69
2022-12-01T03:34:06.915Z,102889.47
2022-12-01T03:36:41.936Z,102891.38
2022-12-01T03:39:16.623Z,102894.91
2022-12-01T03:41:51.176Z,102891.47
2022-12-01T03:44:26.554Z,102891.47
2022-12-01T03:46:59.966Z,102885.31
2022-12-01T03:49:32.105Z,102891.38
2022-12-01T03:52:12.677Z,102880.78
2022-12-01T03:54:50.828Z,102884.31
2022-12-01T03:57:27.787Z,102892.16
2022-12-01T03:59:58.844Z,102886.94
2022-12-01T04:02:31.169Z,102887.75
2022-12-01T04:05:02.556Z,102886.03
2022-12-01T04:07:34.577Z,102882.50
2022-12-01T04:10:05.996Z,102880.72
2022-12-01T04:12:35.475Z,102880.63
2022-12-01T04:15:09.575Z,102881.53
2022-12-01T04:17:40.556Z,102885.94
2022-12-01T04:20:12.965Z,102885.94
2022-12-01T04:22:45.275Z,102885.03
2022-12-01T04:25:16.226Z,102885.13
2022-12-01T04:27:47.816Z,102886.75
2022-12-01T04:30:19.157Z,102887.66
2022-12-01T04:32:49.677Z,102893.72
2022-12-01T04:35:20.577Z,102886.69
2022-12-01T04:37:52.516Z,102891.91
2022-12-01T04:40:23.265Z,102891.09
2022-12-01T04:42:53.736Z,102899.84
2022-12-01T04:45:24.566Z,102890.19
2022-12-01T04:47:55.814Z,102896.34
2022-12-01T04:50:26.335Z,102897.97
2022-12-01T04:52:58.116Z,102896.25
2022-12-01T04:55:28.947Z,102893.50
2022-12-01T04:58:01.706Z,102900.47
2022-12-01T05:00:32.774Z,102903.06
2022-12-01T05:03:03.976Z,102901.28
2022-12-01T05:05:34.875Z,102891.56
2022-12-01T05:08:09.109Z,102897.69
2022-12-01T05:10:40.575Z,102896.78
2022-12-01T05:13:11.045Z,102902.19
2022-12-01T05:15:42.536Z,102910.94
2022-12-01T05:18:13.085Z,102915.25
2022-12-01T05:20:57.954Z,102904.88
2022-12-01T05:23:31.883Z,102904.78
2022-12-01T05:26:04.212Z,102896.03
2022-12-01T05:28:34.646Z,102910.94
2022-12-01T05:31:05.848Z,102914.44
2022-12-01T05:33:36.494Z,102907.63
2022-12-01T05:36:08.236Z,102912.72
2022-12-01T05:38:40.166Z,102917.97
2022-12-01T05:41:11.566Z,102907.50
2022-12-01T05:43:41.878Z,102917.97
2022-12-01T05:46:12.812Z,102921.50
2022-12-01T05:48:43.916Z,102917.97
2022-12-01T05:51:16.616Z,102924.81
2022-12-01T05:53:48.890Z,102922.28
2022-12-01T05:56:19.776Z,102919.69
2022-12-01T05:58:50.158Z,102924.75
2022-12-01T06:01:21.167Z,102925.56
2022-12-01T06:03:51.651Z,102926.38
2022-12-01T06:06:22.681Z,102929.06
2022-12-01T06:08:54.465Z,102933.50
2022-12-01T06:11:25.348Z,102935.28
2022-12-01T06:13:55.808Z,102930.69
2022-12-01T06:16:27.656Z,102932.38
2022-12-01T06:18:57.816Z,102934.84
2022-12-01T06:21:29.011Z,102937.44
2022-12-01T06:24:01.246Z,102940.88
2022-12-01T06:26:32.193Z,102943.50
2022-12-01T06:29:02.707Z,102938.19
2022-12-01T06:31:33.805Z,102951.97
2022-12-01T06:34:04.226Z,102944.03
2022-12-01T06:36:35.496Z,102944.94
2022-12-01T06:39:16.895Z,102949.25
2022-12-01T06:41:48.344Z,102949.34
2022-12-01T06:44:18.803Z,102951.97
2022-12-01T06:46:53.194Z,102956.38
2022-12-01T06:49:23.886Z,102957.19
2022-12-01T06:52:00.970Z,102953.69
2022-12-01T06:54:33.874Z,102955.38
2022-12-01T06:57:05.446Z,102956.28
2022-12-01T06:59:36.966Z,102958.09
2022-12-01T07:02:08.550Z,102953.88
2022-12-01T07:04:39.345Z,102959.28
2022-12-01T07:07:11.635Z,102953.22
2022-12-01T07:09:43.684Z,102962.06
2022-12-01T07:12:16.515Z,102957.78
2022-12-01T07:14:47.136Z,102959.44
2022-12-01T07:17:18.147Z,102961.16
2022-12-01T07:19:48.776Z,102960.38
2022-12-01T07:22:23.356Z,102960.38
2022-12-01T07:24:57.156Z,102960.25
2022-12-01T07:27:31.295Z,102957.66
2022-12-01T07:30:02.028Z,102963.78
2022-12-01T07:32:33.392Z,102953.22
2022-12-01T07:35:05.501Z,102957.66
2022-12-01T07:37:36.320Z,102961.97
2022-12-01T07:40:10.943Z,102961.16
2022-12-01T07:42:44.041Z,102954.13
2022-12-01T07:45:14.691Z,102961.06
2022-12-01T07:47:46.213Z,102963.69
2022-12-01T07:50:16.893Z,102956.75
2022-12-01T07:52:51.597Z,102963.69
2022-12-01T07:55:23.892Z,102963.09
2022-12-01T07:57:55.161Z,102963.00
2022-12-01T08:00:26.077Z,102963.00
2022-12-01T08:02:57.596Z,102968.22
2022-12-01T08:05:30.697Z,102971.03
2022-12-01T08:08:01.941Z,102964.16
2022-12-01T08:10:34.028Z,102972.91
2022-12-01T08:13:05.865Z,102962.56
2022-12-01T08:15:37.367Z,102969.69
2022-12-01T08:18:08.578Z,102966.88
2022-12-01T08:20:39.005Z,102966.00
2022-12-01T08:23:09.981Z,102965.19
2022-12-01T08:25:44.565Z,102960.84
2022-12-01T08:28:15.743Z,102964.34
2022-12-01T08:30:46.487Z,102968.78
2022-12-01T08:33:17.644Z,102974.09
2022-12-01T08:35:49.233Z,102968.84
2022-12-01T08:38:20.886Z,102974.19
2022-12-01T08:40:52.888Z,102972.59
2022-12-01T08:46:15.938Z,102983.22
2022-12-01T08:48:47.204Z,102970.22
2022-12-01T08:51:20.963Z,102979.78
2022-12-01T08:53:54.995Z,102980.81
2022-12-01T08:56:36.584Z,102976.38
2022-12-01T08:59:09.363Z,102977.38
2022-12-01T09:01:52.513Z,102972.84
2022-12-01T09:04:24.988Z,102975.56
2022-12-01T09:06:58.376Z,102974.75
2022-12-01T09:09:33.544Z,102967.88
2022-12-01T09:12:07.915Z,102978.34
2022-12-01T09:14:40.755Z,102970.41
2022-12-01T09:17:11.704Z,102967.72
2022-12-01T09:19:42.606Z,102962.47
2022-12-01T09:22:13.644Z,102969.44
2022-12-01T09:24:44.154Z,102965.19
2022-12-01T09:27:16.183Z,102961.75
2022-12-01T09:29:47.405Z,102961.66
2022-12-01T09:32:18.446Z,102960.94
2022-12-01T09:34:49.658Z,102959.34
2022-12-01T09:37:20.595Z,102950.59
2022-12-01T09:39:52.207Z,102956.78
2022-12-01T09:42:32.399Z,102951.72
2022-12-01T09:45:07.634Z,102955.16
2022-12-01T09:47:40.507Z,102946.63
2022-12-01T09:50:19.195Z,102944.25
2022-12-01T09:52:52.675Z,102950.56
2022-12-01T09:55:26.695Z,102940.53
2022-12-01T09:58:00.605Z,102938.00
2022-12-01T10:00:34.902Z,102938.75
2022-12-01T10:03:16.824Z,102932.69
2022-12-01T10:06:25.009Z,102939.81
2022-12-01T10:08:45.964Z,102933.69
2022-12-01T10:11:29.673Z,102945.03
2022-12-01T10:14:05.004Z,102939.94
2022-12-01T10:16:43.103Z,102930.50
2022-12-01T10:19:19.705Z,102929.69
2022-12-01T10:22:07.994Z,102932.22
2022-12-01T10:24:54.506Z,102933.22
2022-12-01T10:27:39.202Z,102931.53
2022-12-01T10:30:16.194Z,102936.94
2022-12-01T10:32:53.994Z,102930.94
2022-12-01T10:35:27.595Z,102936.31
2022-12-01T10:38:02.263Z,102932.78
2022-12-01T10:40:35.664Z,102914.25
2022-12-01T10:43:08.035Z,102923.91
2022-12-01T10:45:45.651Z,102925.16
2022-12-01T10:48:18.794Z,102923.09
2022-12-01T10:50:51.119Z,102925.00
2022-12-01T10:53:33.999Z,102930.16
2022-12-01T10:56:12.400Z,102914.78
2022-12-01T10:58:48.605Z,102912.88
2022-12-01T11:01:22.776Z,102915.25
2022-12-01T11:03:57.440Z,102916.25
2022-12-01T11:06:31.032Z,102910.53
2022-12-01T11:09:04.065Z,102917.31
2022-12-01T11:11:37.514Z,102913.88
2022-12-01T11:14:19.796Z,102918.31
2022-12-01T11:16:53.051Z,102908.97
2022-12-01T11:19:31.851Z,102912.69
2022-12-01T11:22:06.033Z,102912.69
2022-12-01T11:24:44.543Z,102914.34
2022-12-01T11:27:19.526Z,102913.50
2022-12-01T11:29:53.195Z,102909.88
2022-12-01T11:32:29.164Z,102908.19
2022-12-01T11:35:26.505Z,102909.53
2022-12-01T11:38:28.406Z,102901.66
2022-12-01T11:40:54.947Z,102900.84
2022-12-01T11:43:30.675Z,102895.88
2022-12-01T11:46:07.188Z,102895.59
2022-12-01T11:48:40.735Z,102901.47
2022-12-01T11:51:17.576Z,102906.25
2022-12-01T11:53:51.796Z,102901.13
2022-12-01T11:56:26.565Z,102896.03
2022-12-01T11:59:01.336Z,102904.88
2022-12-01T12:01:42.376Z,102901.91
2022-12-01T12:04:29.348Z,102902.84
2022-12-01T12:07:09.225Z,102904.63
2022-12-01T12:09:53.376Z,102906.44
2022-12-01T12:12:37.606Z,102898.56
2022-12-01T12:15:19.775Z,102894.03
2022-12-01T12:18:06.243Z,102893.41
2022-12-01T12:20:48.787Z,102892.59
2022-12-01T12:23:36.822Z,102894.16
2022-12-01T12:26:16.188Z,102900.09
2022-12-01T12:29:13.511Z,102894.03
2022-12-01T12:32:01.295Z,102903.53
2022-12-01T12:34:42.856Z,102896.59
2022-12-01T12:37:26.386Z,102893.06
2022-12-01T12:40:12.257Z,102886.03
2022-12-01T12:42:52.227Z,102889.38
2022-12-01T12:45:30.386Z,102887.66
2022-12-01T12:48:16.136Z,102886.78
2022-12-01T12:50:56.946Z,102884.16
2022-12-01T12:53:36.255Z,102887.56
2022-12-01T12:56:13.927Z,102887.66
2022-12-01T12:58:52.601Z,102876.44
2022-12-01T13:01:28.498Z,102879.88
2022-12-01T13:04:03.476Z,102878.09
2022-12-01T13:06:42.572Z,102876.19
2022-12-01T13:09:20.115Z,102871.94
2022-12-01T13:11:57.351Z,102873.75
2022-12-01T13:14:34.591Z,102878.00
2022-12-01T13:17:20.250Z,102877.06
2022-12-01T13:19:51.239Z,102877.06
2022-12-01T13:22:26.719Z,102867.53
2022-12-01T13:24:59.010Z,102872.84
2022-12-01T13:27:33.661Z,102870.16
2022-12-01T13:30:04.611Z,102869.97
2022-12-01T13:32:36.388Z,102874.94
2022-12-01T13:35:09.608Z,102868.78
2022-12-01T13:37:41.767Z,102865.47
2022-12-01T13:40:23.842Z,102873.41
2022-12-01T13:43:05.517Z,102868.16
2022-12-01T13:45:42.339Z,102867.06
2022-12-01T13:48:29.819Z,102866.19
2022-12-01T13:51:02.996Z,102855.69
2022-12-01T13:53:36.488Z,102857.41
2022-12-01T13:56:29.323Z,102864.44
2022-12-01T13:59:00.450Z,102860.03
2022-12-01T14:01:51.451Z,102862.56
2022-12-01T14:04:31.660Z,102866.03
2022-12-01T17:12:10.630Z,102807.38
2022-12-01T17:14:43.508Z,102804.84
2022-12-01T17:17:13.620Z,102811.06
2022-12-01T17:19:43.959Z,102810.16
2022-12-01T17:22:22.045Z,102813.78
2022-12-01T17:24:55.874Z,102816.47
2022-12-01T17:27:34.275Z,102809.44
2022-12-01T17:32:54.465Z,102816.19
2022-12-01T17:35:29.489Z,102814.31
2022-12-01T17:37:59.815Z,102813.16
2022-12-01T17:40:32.498Z,102810.59
2022-12-01T17:43:06.128Z,102811.63
2022-12-01T17:45:42.241Z,102779.03
2022-12-01T17:48:13.624Z,102820.25
2022-12-01T17:50:47.260Z,102812.41
2022-12-01T17:53:17.555Z,102814.25
2022-12-01T17:55:49.590Z,102823.06
2022-12-01T17:58:22.057Z,102820.38
2022-12-01T18:00:58.079Z,102822.09
2022-12-01T18:03:28.250Z,102824.78
2022-12-01T18:05:59.518Z,102818.53
2022-12-01T18:08:31.878Z,102824.59
2022-12-01T18:11:03.866Z,102817.63
2022-12-01T18:13:38.075Z,102822.88
2022-12-01T18:16:10.332Z,102822.72
2022-12-01T18:18:40.914Z,102824.88
2022-12-01T18:21:14.156Z,102832.44
2022-12-01T18:23:49.482Z,102824.59
2022-12-01T18:26:22.985Z,102823.78
2022-12-01T18:28:58.837Z,102826.59
2022-12-01T18:31:30.731Z,102828.47
2022-12-01T18:34:03.435Z,102822.88
2022-12-01T18:36:36.345Z,102828.94
2022-12-01T18:39:09.295Z,102828.94
2022-12-01T18:41:41.038Z,102825.31
2022-12-01T18:44:13.466Z,102828.75
2022-12-01T18:46:44.186Z,102827.22
2022-12-01T18:49:14.511Z,102824.72
2022-12-01T18:51:46.079Z,102822.09
2022-12-01T18:54:18.245Z,102824.59
2022-12-01T18:56:52.167Z,102826.84
2022-12-01T18:59:23.639Z,102819.13
2022-12-01T19:01:54.101Z,102820.91
2022-12-01T19:04:24.135Z,102826.31
2022-12-01T19:06:55.177Z,102823.53
2022-12-01T19:09:25.254Z,102831.38
2022-12-01T19:12:00.105Z,102820.78
2022-12-01T19:14:31.615Z,102820.78
2022-12-01T19:17:01.936Z,102818.19
2022-12-01T19:19:37.136Z,102827.22
2022-12-01T19:22:07.835Z,102821.06
2022-12-01T19:24:37.877Z,102821.06
2022-12-01T19:27:08.486Z,102817.56
2022-12-01T19:29:40.072Z,102819.34
2022-12-01T19:32:12.128Z,102819.56
2022-12-01T19:34:42.145Z,102816.03
2022-12-01T19:37:12.686Z,102816.03
2022-12-01T19:39:42.588Z,102811.50
2022-12-01T19:42:13.800Z,102815.84
2022-12-01T19:44:45.498Z,102806.13
2022-12-01T19:47:21.896Z,102809.78
2022-12-01T19:49:57.145Z,102804.56
2022-12-01T19:52:36.422Z,102805.38
2022-12-01T19:55:08.388Z,102809.91
2022-12-01T19:57:46.109Z,102804.56
2022-12-01T20:00:26.137Z,102809.09
2022-12-01T20:02:56.399Z,102805.72
2022-12-01T20:05:34.343Z,102811.88
2022-12-01T20:08:04.959Z,102809.34
2022-12-01T20:10:37.289Z,102808.72
2022-12-01T20:13:07.799Z,102807.00
2022-12-01T20:15:39.069Z,102809.59
2022-12-01T20:18:09.046Z,102806.16
2022-12-01T20:20:38.977Z,102801.75
2022-12-01T20:23:09.214Z,102807.00
2022-12-01T20:25:40.123Z,102807.72
2022-12-01T20:28:10.495Z,102801.47
2022-12-01T20:30:44.196Z,102801.47
2022-12-01T20:33:14.545Z,102801.31
2022-12-01T20:35:44.714Z,102805.81
2022-12-01T20:38:15.034Z,102805.81
2022-12-01T20:40:45.156Z,102813.66
2022-12-01T20:43:15.547Z,102810.34
2022-12-01T20:45:47.068Z,102806.09
2022-12-01T20:48:17.515Z,102805.34
2022-12-01T20:50:47.564Z,102799.22
2022-12-01T20:53:17.814Z,102808.16
2022-12-01T20:55:47.867Z,102807.19
2022-12-01T20:58:18.513Z,102802.84
2022-12-01T21:00:51.960Z,102811.53
2022-12-01T21:03:22.434Z,102822.69
2022-12-01T21:05:52.585Z,102812.31
2022-12-01T21:08:23.956Z,102820.16
2022-12-01T21:10:54.007Z,102814.91
2022-12-01T21:13:42.472Z,102816.63
2022-12-01T21:16:21.553Z,102813.19
2022-12-01T21:18:55.163Z,102814.03
2022-12-01T21:21:28.095Z,102810.34
2022-12-01T21:24:20.525Z,102815.56
2022-12-01T21:26:56.195Z,102813.84
2022-12-01T21:29:28.110Z,102813.84
2022-12-01T21:32:02.064Z,102813.94
2022-12-01T21:34:35.354Z,102806.16
2022-12-01T21:37:12.936Z,102807.00
2022-12-01T21:39:43.152Z,102805.34
2022-12-01T21:42:19.645Z,102811.53
2022-12-01T21:44:51.065Z,102811.41
2022-12-01T21:47:25.634Z,102807.97
2022-12-01T21:49:59.015Z,102806.28
2022-12-01T21:52:33.132Z,102806.38
2022-12-01T21:55:11.122Z,102804.66
2022-12-01T21:57:43.596Z,102806.38
2022-12-01T22:00:28.976Z,102804.66
2022-12-01T22:06:21.194Z,102804.72
2022-12-01T22:08:50.605Z,102801.41
2022-12-01T22:11:23.228Z,102803.19
2022-12-01T22:14:00.628Z,102800.66
2022-12-01T22:16:33.480Z,102804.19
2022-12-01T22:19:19.469Z,102792.81
2022-12-01T22:21:51.959Z,102798.94
2022-12-01T22:24:27.257Z,102799.75
2022-12-01T22:27:13.240Z,102796.25
2022-12-01T22:29:45.836Z,102806.78
2022-12-01T22:32:35.881Z,102799.75
2022-12-01T22:35:25.885Z,102799.75
2022-12-01T22:38:01.535Z,102799.75
2022-12-01T22:40:41.623Z,102799.84
2022-12-01T22:43:26.033Z,102801.56
2022-12-01T22:46:15.553Z,102800.59
2022-12-01T22:48:47.639Z,102796.16
2022-12-01T22:51:40.181Z,102797.84
2022-12-01T22:54:34.079Z,102791.91
2022-12-01T22:57:33.449Z,102792.81
2022-12-01T23:00:15.629Z,102782.25
2022-12-01T23:02:49.011Z,102782.88
2022-12-01T23:05:26.197Z,102782.00
2022-12-01T23:07:57.842Z,102782.06
2022-12-01T23:10:32.639Z,102786.41
2022-12-01T23:13:14.588Z,102776.84
2022-12-01T23:15:48.002Z,102784.69
2022-12-01T23:18:22.015Z,102773.41
2022-12-01T23:20:53.893Z,102774.22
2022-12-01T23:23:28.902Z,102776.91
2022-12-01T23:26:02.977Z,102777.03
2022-12-01T23:28:33.808Z,102772.63
2022-12-01T23:31:03.827Z,102773.41
2022-12-01T23:33:35.360Z,102768.16
2022-12-01T23:36:07.457Z,102776.84
2022-12-01T23:38:39.442Z,102762.78
2022-12-01T23:41:15.281Z,102770.28
2022-12-01T23:43:46.963Z,102767.16
2022-12-01T23:46:20.012Z,102771.91
2022-12-01T23:48:55.559Z,102769.75
2022-12-01T23:51:27.322Z,102773.13
2022-12-01T23:53:59.637Z,102773.72
2022-12-01T23:56:34.351Z,102773.13
2022-12-01T23:59:04.832Z,102771.94
